• Join FlightAware (Why Join?)
  • Login
  • US Flag 
04:40PM EDT


 

Airport Tracker/Info


-or-


 

Live Flight TrackerFlight Track Log ✈ FLG4262 ✈ 13-Apr-2014 ✈ KDTW - KBGM

Flight Track Log - Related Links

Times and Time Zones

All times are in EDT time to prevent confusion due to time zone crossing. See the FLG4262 flight status page for this flight to view local times or setup timezone preferences in your user account.

Time Position Orientation Groundspeed Altitude Reporting Facility
EDT Latitude Longitude Course Direction KTS MPH feet Rate Location/Type
03:59PM 42.2097 -83.3478 181° South 135 155 1,700  Level Cleveland Center
03:59PM 42.1908 -83.3481 181° South 179 206 2,500 2,220 Climbing Cleveland Center
04:00PM 42.1628 -83.3414 170° South 175 201 4,300 3,000 Climbing Cleveland Center
04:00PM 42.1353 -83.3347 170° South 225 259 5,600 2,940 Climbing Cleveland Center
04:01PM 42.0936 -83.3097 156° South 260 299 7,500 2,820 Climbing Cleveland Center
04:01PM 42.0811 -83.2764 117° Southeast 296 341 8,500 2,400 Climbing Cleveland Center
04:02PM 42.0831 -83.1850 88° East 325 374 9,900 1,440 Climbing Cleveland Center
04:02PM 42.0881 -83.1592 75° East 348 400 10,000 1,020 Climbing Cleveland Center
04:03PM 42.1231 -83.0689 62° Northeast 341 392 11,000 1,440 Climbing Cleveland Center
04:03PM 42.1397 -83.0311 59° Northeast 379 436 11,500 1,320 Climbing Cleveland Center
04:04PM 42.1767 -82.9375 62° Northeast 392 451 12,400 960 Climbing Cleveland Center
04:05PM 42.2344 -82.7919 62° Northeast 437 503 13,300 1,920 Climbing Cleveland Center
04:06PM 42.3061 -82.6139 61° Northeast 452 520 16,400 2,760 Climbing Cleveland Center
04:07PM 42.3617 -82.4711 62° Northeast 440 506 19,100 2,160 Climbing Cleveland Center
04:08PM 42.3625 -82.3139 90° East 427 491 20,900 1,500 Climbing Cleveland Center
04:09PM 42.3561 -82.1539 93° East 422 486 22,300 1,200 Climbing Cleveland Center
04:10PM 42.3492 -81.9914 93° East 436 502 23,400 1,080 Climbing Cleveland Center
04:11PM 42.3408 -81.7906 93° East 448 516 24,600 720 Climbing Cleveland Center
04:12PM 42.3325 -81.6156 94° East 457 526 25,000 180 Climbing Cleveland Center
04:13PM 42.3242 -81.4303 93° East 482 555 25,000  Level Cleveland Center
04:14PM 42.3147 -81.2419 94° East 492 566 25,000  Level Cleveland Center
04:15PM 42.3047 -81.0506 94° East 501 577 25,000  Level Cleveland Center
04:16PM 42.2944 -80.8600 94° East 503 579 25,000  Level Cleveland Center
04:17PM 42.2850 -80.6692 94° East 504 580 25,000  Level Cleveland Center
04:18PM 42.2739 -80.4792 94° East 502 578 25,000  Level Cleveland Center
04:19PM 42.2619 -80.2608 94° East 500 575 25,000  Level Cleveland Center
04:20PM 42.2506 -80.0725 95° East 499 574 25,000  Level Cleveland Center
04:21PM 42.2378 -79.8772 95° East 496 571 25,000  Level Cleveland Center
04:22PM 42.2258 -79.6931 95° East 495 570 25,000  Level Cleveland Center
04:24PM 42.2139 -79.5081 95° East 495 570 25,000  Level Cleveland Center
04:25PM 42.2011 -79.3253 95° East 495 570 25,000  Level Cleveland Center
04:26PM 42.1897 -79.1419 95° East 495 570 25,000  Level Cleveland Center
04:27PM 42.1922 -78.9561 89° East 498 573 25,000  Level Cleveland Center
04:28PM 42.1961 -78.7336 89° East 491 565 25,000  Level Cleveland Center
04:29PM 42.1989 -78.5489 89° East 492 566 25,000  Level Cleveland Center
04:30PM 42.2022 -78.3664 89° East 492 566 25,000 -540 Level Cleveland Center
04:31PM 42.2036 -78.1833 89° East 492 566 23,900 -1,080 Descending Cleveland Center
04:32PM 42.2050 -78.0019 89° East 491 565 22,800 -1,080 Descending Cleveland Center
04:33PM 42.2075 -77.8203 89° East 491 565 21,700 -1,200 Descending Cleveland Center
04:34PM 42.2078 -77.6075 90° East 485 558 20,400 -1,200 Descending Cleveland Center
04:35PM 42.2092 -77.4317 89° East 477 549 19,300 -1,080 Descending Cleveland Center
04:36PM 42.2103 -77.2594 89° East 470 541 18,200 -1,200 Descending Cleveland Center
04:37PM 42.2106 -77.0889 90° East 463 533 16,900 -1,500 Descending Cleveland Center
04:38PM 42.2108 -76.9325 90° East 424 488 15,100 -2,040 Descending Cleveland Center
04:39PM 42.2108 -76.7514 90° East 407 468 12,800 -1,980 Descending Cleveland Center
04:40PM 42.2136 -76.6133 88° East 373 429 11,100 -1,800 Descending Cleveland Center
04:41PM 42.2289 -76.4897 80° East 341 392 9,200 -1,860 Descending Cleveland Center
04:42PM 42.2411 -76.3742 82° East 329 379 7,300 -1,920 Descending Cleveland Center
04:43PM 42.2525 -76.2697 82° East 296 341 5,300 -1,680 Descending Cleveland Center
04:44PM 42.2628 -76.1506 83° East 274 315 3,900 -840 Descending Cleveland Center
04:45PM 42.2753 -76.0853 75° East 226 260 3,600 -240 Descending Cleveland Center
04:46PM 42.2736 -76.0208 92° East 216 249 3,500 -120 Descending Cleveland Center